Briefing drone pour Bas-en-basset

Rechercher une autre localisation

Conditions de vol :


Nous sommes le : Samedi 23 octobre 2021
Il est 05:43 UTC (07:43 LT)

Lever de soleil : 05:44 UTC (07:44 LT)
Coucher de soleil : 17:11 UTC (19:11 LT)

Météo

L'essentiel des conditions de vol

VIGILANCE MÉTÉO FRANCE - Haute-Loire (43)
Pas de vigilances particulieres
CARTE TEMSI
CARTES DES FRONTS
METAR de LFMH
LFMH 230530Z AUTO 00000KT 9999 FEW036 M02/M02 Q1026

Date d'émission: 23/10/2021
Heure d'émission: 05:30 UTC
Vent: Calme
Visibilité horizontale: > 10 km
Plafond :
- Peu de nuages à 3600ft (1097m)
Température: -2 °C
Point de rosée: -2 °C
Humidité: 100%
Pression (QNH): 1026 hPa
TAF de LFMH
LFMH 161901Z 1619/1712 CNL

Conditions prévues :

Heure d'émission : Bulletin éffectué le 16 à 19:00 UTC
Prévision : Valide du 16 a 19:00 UTC au 17 a 12:00 UTC
Nuages : à 0ft (0 m)
WEBCAM POUR BAS-EN-BASSET

Réglementation

Voler en sécurité

CARTES AERONAUTIQUE 1/500.000
CARTES VAC (LFMH)
SUP AIP




Chargement des AIP...
NOTAM (BAS-EN-BASSET + Terrain à proximité / FIR )




Chargement des NOTAMS...
CONTACT PREFECTURE 43


Avertissement : Les données mises à disposition sont indicatives. Oxygène Drone ne pourra être tenu responsable de dégâts causés aux biens et aux personnes.